sensor_id;sensor_type;location;lat;lon;timestamp;P1;durP1;ratioP1;P2;durP2;ratioP2
1344;SDS011;15375;48.540;9.268;2023-04-28T00:01:58;4.83;;;4.17;;
1344;SDS011;15375;48.540;9.268;2023-04-28T00:04:26;4.30;;;3.90;;
1344;SDS011;15375;48.540;9.268;2023-04-28T00:06:52;3.70;;;3.40;;
1344;SDS011;15375;48.540;9.268;2023-04-28T00:09:17;4.20;;;3.00;;
1344;SDS011;15375;48.540;9.268;2023-04-28T00:11:43;4.73;;;4.27;;
1344;SDS011;15375;48.540;9.268;2023-04-28T00:14:10;4.20;;;3.80;;
1344;SDS011;15375;48.540;9.268;2023-04-28T00:16:36;7.90;;;4.00;;
1344;SDS011;15375;48.540;9.268;2023-04-28T00:19:01;4.50;;;3.53;;
1344;SDS011;15375;48.540;9.268;2023-04-28T00:21:26;5.13;;;3.57;;
1344;SDS011;15375;48.540;9.268;2023-04-28T00:23:52;3.20;;;2.90;;
1344;SDS011;15375;48.540;9.268;2023-04-28T00:26:18;5.20;;;3.40;;
1344;SDS011;15375;48.540;9.268;2023-04-28T00:28:43;3.47;;;2.90;;
1344;SDS011;15375;48.540;9.268;2023-04-28T00:31:09;3.57;;;3.17;;
1344;SDS011;15375;48.540;9.268;2023-04-28T00:33:36;4.50;;;4.10;;
1344;SDS011;15375;48.540;9.268;2023-04-28T00:36:02;3.33;;;3.03;;
1344;SDS011;15375;48.540;9.268;2023-04-28T00:38:28;4.63;;;3.50;;
1344;SDS011;15375;48.540;9.268;2023-04-28T00:40:53;3.90;;;3.60;;
1344;SDS011;15375;48.540;9.268;2023-04-28T00:43:19;4.27;;;3.87;;
1344;SDS011;15375;48.540;9.268;2023-04-28T00:45:44;3.73;;;3.43;;
1344;SDS011;15375;48.540;9.268;2023-04-28T00:48:09;4.67;;;3.60;;
1344;SDS011;15375;48.540;9.268;2023-04-28T00:50:35;6.37;;;4.40;;
1344;SDS011;15375;48.540;9.268;2023-04-28T00:53:00;5.10;;;3.70;;
1344;SDS011;15375;48.540;9.268;2023-04-28T00:55:26;5.07;;;3.83;;
1344;SDS011;15375;48.540;9.268;2023-04-28T00:57:55;4.00;;;3.60;;
1344;SDS011;15375;48.540;9.268;2023-04-28T01:00:21;4.53;;;4.13;;
1344;SDS011;15375;48.540;9.268;2023-04-28T01:02:48;6.80;;;3.57;;
1344;SDS011;15375;48.540;9.268;2023-04-28T01:05:15;5.03;;;4.07;;
1344;SDS011;15375;48.540;9.268;2023-04-28T01:07:40;5.23;;;4.50;;
1344;SDS011;15375;48.540;9.268;2023-04-28T01:10:06;3.73;;;3.10;;
1344;SDS011;15375;48.540;9.268;2023-04-28T01:12:32;4.27;;;3.87;;
1344;SDS011;15375;48.540;9.268;2023-04-28T01:14:57;5.70;;;3.50;;
1344;SDS011;15375;48.540;9.268;2023-04-28T01:17:23;5.23;;;4.10;;
1344;SDS011;15375;48.540;9.268;2023-04-28T01:19:48;4.27;;;3.87;;
1344;SDS011;15375;48.540;9.268;2023-04-28T01:22:14;4.30;;;3.90;;
1344;SDS011;15375;48.540;9.268;2023-04-28T01:24:40;4.37;;;4.00;;
1344;SDS011;15375;48.540;9.268;2023-04-28T01:27:06;3.53;;;3.27;;
1344;SDS011;15375;48.540;9.268;2023-04-28T01:29:31;5.83;;;3.73;;
1344;SDS011;15375;48.540;9.268;2023-04-28T01:31:56;3.40;;;3.10;;
1344;SDS011;15375;48.540;9.268;2023-04-28T01:34:22;3.63;;;3.33;;
1344;SDS011;15375;48.540;9.268;2023-04-28T01:36:47;3.70;;;3.40;;
1344;SDS011;15375;48.540;9.268;2023-04-28T01:39:12;3.70;;;3.10;;
1344;SDS011;15375;48.540;9.268;2023-04-28T01:41:39;7.83;;;4.00;;
1344;SDS011;15375;48.540;9.268;2023-04-28T01:44:04;4.97;;;3.60;;
1344;SDS011;15375;48.540;9.268;2023-04-28T01:46:31;4.43;;;3.90;;
1344;SDS011;15375;48.540;9.268;2023-04-28T01:48:57;4.10;;;3.23;;
1344;SDS011;15375;48.540;9.268;2023-04-28T01:51:22;5.57;;;3.30;;
1344;SDS011;15375;48.540;9.268;2023-04-28T01:53:47;5.10;;;3.47;;
1344;SDS011;15375;48.540;9.268;2023-04-28T01:56:13;4.73;;;3.43;;
1344;SDS011;15375;48.540;9.268;2023-04-28T01:58:45;4.23;;;3.30;;
1344;SDS011;15375;48.540;9.268;2023-04-28T02:01:10;4.23;;;3.70;;
1344;SDS011;15375;48.540;9.268;2023-04-28T02:03:35;3.77;;;3.47;;
1344;SDS011;15375;48.540;9.268;2023-04-28T02:06:01;6.77;;;3.53;;
1344;SDS011;15375;48.540;9.268;2023-04-28T02:08:26;5.37;;;3.47;;
1344;SDS011;15375;48.540;9.268;2023-04-28T02:10:52;4.03;;;3.73;;
1344;SDS011;15375;48.540;9.268;2023-04-28T02:13:17;3.83;;;3.50;;
1344;SDS011;15375;48.540;9.268;2023-04-28T02:15:42;4.90;;;3.30;;
1344;SDS011;15375;48.540;9.268;2023-04-28T02:18:08;5.53;;;4.47;;
1344;SDS011;15375;48.540;9.268;2023-04-28T02:20:34;4.97;;;4.57;;
1344;SDS011;15375;48.540;9.268;2023-04-28T02:23:00;4.30;;;3.90;;
1344;SDS011;15375;48.540;9.268;2023-04-28T02:25:25;3.93;;;3.63;;
1344;SDS011;15375;48.540;9.268;2023-04-28T02:27:50;4.50;;;3.67;;
1344;SDS011;15375;48.540;9.268;2023-04-28T02:30:16;5.10;;;4.60;;
1344;SDS011;15375;48.540;9.268;2023-04-28T02:32:41;4.07;;;3.77;;
1344;SDS011;15375;48.540;9.268;2023-04-28T02:35:07;4.43;;;4.03;;
1344;SDS011;15375;48.540;9.268;2023-04-28T02:37:32;5.17;;;3.20;;
1344;SDS011;15375;48.540;9.268;2023-04-28T02:39:58;4.63;;;4.00;;
1344;SDS011;15375;48.540;9.268;2023-04-28T02:42:23;5.10;;;3.50;;
1344;SDS011;15375;48.540;9.268;2023-04-28T02:44:48;3.90;;;3.60;;
1344;SDS011;15375;48.540;9.268;2023-04-28T02:47:14;4.43;;;3.50;;
1344;SDS011;15375;48.540;9.268;2023-04-28T02:49:39;5.10;;;4.20;;
1344;SDS011;15375;48.540;9.268;2023-04-28T02:52:04;4.73;;;4.33;;
1344;SDS011;15375;48.540;9.268;2023-04-28T02:54:30;6.50;;;4.50;;
1344;SDS011;15375;48.540;9.268;2023-04-28T02:56:58;9.47;;;4.77;;
1344;SDS011;15375;48.540;9.268;2023-04-28T02:59:23;5.33;;;4.83;;
1344;SDS011;15375;48.540;9.268;2023-04-28T03:01:49;5.80;;;5.17;;
1344;SDS011;15375;48.540;9.268;2023-04-28T03:04:15;5.93;;;5.43;;
1344;SDS011;15375;48.540;9.268;2023-04-28T03:06:41;6.57;;;4.60;;
1344;SDS011;15375;48.540;9.268;2023-04-28T03:09:07;6.47;;;5.80;;
1344;SDS011;15375;48.540;9.268;2023-04-28T03:11:33;11.70;;;6.37;;
1344;SDS011;15375;48.540;9.268;2023-04-28T03:13:58;9.33;;;5.53;;
1344;SDS011;15375;48.540;9.268;2023-04-28T03:16:24;6.93;;;6.23;;
1344;SDS011;15375;48.540;9.268;2023-04-28T03:18:49;7.20;;;6.40;;
1344;SDS011;15375;48.540;9.268;2023-04-28T03:21:14;8.90;;;6.40;;
1344;SDS011;15375;48.540;9.268;2023-04-28T03:23:40;6.20;;;5.63;;
1344;SDS011;15375;48.540;9.268;2023-04-28T03:26:05;8.17;;;6.30;;
1344;SDS011;15375;48.540;9.268;2023-04-28T03:28:31;12.40;;;5.83;;
1344;SDS011;15375;48.540;9.268;2023-04-28T03:30:56;6.30;;;5.10;;
1344;SDS011;15375;48.540;9.268;2023-04-28T03:33:22;9.30;;;6.20;;
1344;SDS011;15375;48.540;9.268;2023-04-28T03:35:47;6.00;;;5.40;;
1344;SDS011;15375;48.540;9.268;2023-04-28T03:38:12;9.00;;;5.90;;
1344;SDS011;15375;48.540;9.268;2023-04-28T03:40:38;7.47;;;6.63;;
1344;SDS011;15375;48.540;9.268;2023-04-28T03:43:04;6.73;;;6.03;;
1344;SDS011;15375;48.540;9.268;2023-04-28T03:45:29;10.03;;;6.57;;
1344;SDS011;15375;48.540;9.268;2023-04-28T03:47:55;7.37;;;6.60;;
1344;SDS011;15375;48.540;9.268;2023-04-28T03:50:20;7.50;;;6.80;;
1344;SDS011;15375;48.540;9.268;2023-04-28T03:52:45;6.63;;;6.03;;
1344;SDS011;15375;48.540;9.268;2023-04-28T03:55:11;6.43;;;5.93;;
1344;SDS011;15375;48.540;9.268;2023-04-28T03:57:37;7.17;;;6.50;;
1344;SDS011;15375;48.540;9.268;2023-04-28T04:00:02;8.30;;;6.00;;
1344;SDS011;15375;48.540;9.268;2023-04-28T04:02:29;7.60;;;6.73;;
1344;SDS011;15375;48.540;9.268;2023-04-28T04:04:54;8.10;;;6.20;;
1344;SDS011;15375;48.540;9.268;2023-04-28T04:07:20;6.27;;;5.63;;
1344;SDS011;15375;48.540;9.268;2023-04-28T04:09:46;7.67;;;6.43;;
1344;SDS011;15375;48.540;9.268;2023-04-28T04:12:11;7.23;;;6.07;;
1344;SDS011;15375;48.540;9.268;2023-04-28T04:14:37;7.40;;;6.57;;
1344;SDS011;15375;48.540;9.268;2023-04-28T04:17:02;7.43;;;6.20;;
1344;SDS011;15375;48.540;9.268;2023-04-28T04:19:27;8.60;;;6.07;;
1344;SDS011;15375;48.540;9.268;2023-04-28T04:21:53;8.53;;;6.90;;
1344;SDS011;15375;48.540;9.268;2023-04-28T04:24:18;7.47;;;6.77;;
1344;SDS011;15375;48.540;9.268;2023-04-28T04:26:43;7.30;;;6.60;;
1344;SDS011;15375;48.540;9.268;2023-04-28T04:29:09;7.10;;;5.53;;
1344;SDS011;15375;48.540;9.268;2023-04-28T04:31:35;6.90;;;6.20;;
1344;SDS011;15375;48.540;9.268;2023-04-28T04:34:00;8.20;;;6.37;;
1344;SDS011;15375;48.540;9.268;2023-04-28T04:36:25;7.63;;;6.93;;
1344;SDS011;15375;48.540;9.268;2023-04-28T04:38:51;8.30;;;5.70;;
1344;SDS011;15375;48.540;9.268;2023-04-28T04:41:19;6.73;;;6.10;;
1344;SDS011;15375;48.540;9.268;2023-04-28T04:43:45;7.63;;;6.90;;
1344;SDS011;15375;48.540;9.268;2023-04-28T04:46:10;8.00;;;6.70;;
1344;SDS011;15375;48.540;9.268;2023-04-28T04:48:36;9.20;;;6.50;;
1344;SDS011;15375;48.540;9.268;2023-04-28T04:51:01;8.23;;;6.00;;
1344;SDS011;15375;48.540;9.268;2023-04-28T04:53:27;8.90;;;6.17;;
1344;SDS011;15375;48.540;9.268;2023-04-28T04:55:52;6.33;;;5.73;;
1344;SDS011;15375;48.540;9.268;2023-04-28T04:58:17;9.33;;;6.37;;
1344;SDS011;15375;48.540;9.268;2023-04-28T05:00:43;6.97;;;6.27;;
1344;SDS011;15375;48.540;9.268;2023-04-28T05:03:08;9.37;;;7.00;;
1344;SDS011;15375;48.540;9.268;2023-04-28T05:05:34;8.87;;;6.53;;
1344;SDS011;15375;48.540;9.268;2023-04-28T05:07:59;8.47;;;7.77;;
1344;SDS011;15375;48.540;9.268;2023-04-28T05:10:26;10.43;;;7.37;;
1344;SDS011;15375;48.540;9.268;2023-04-28T05:12:51;7.50;;;6.80;;
1344;SDS011;15375;48.540;9.268;2023-04-28T05:15:17;10.57;;;6.70;;
1344;SDS011;15375;48.540;9.268;2023-04-28T05:17:42;10.13;;;6.63;;
1344;SDS011;15375;48.540;9.268;2023-04-28T05:20:07;8.30;;;7.50;;
1344;SDS011;15375;48.540;9.268;2023-04-28T05:22:33;9.17;;;7.70;;
1344;SDS011;15375;48.540;9.268;2023-04-28T05:24:58;9.70;;;6.80;;
1344;SDS011;15375;48.540;9.268;2023-04-28T05:27:24;8.73;;;7.30;;
1344;SDS011;15375;48.540;9.268;2023-04-28T05:29:49;7.30;;;6.60;;
1344;SDS011;15375;48.540;9.268;2023-04-28T05:32:14;9.03;;;7.67;;
1344;SDS011;15375;48.540;9.268;2023-04-28T05:34:40;10.23;;;7.73;;
1344;SDS011;15375;48.540;9.268;2023-04-28T05:37:05;11.80;;;8.30;;
1344;SDS011;15375;48.540;9.268;2023-04-28T05:39:30;10.90;;;8.27;;
1344;SDS011;15375;48.540;9.268;2023-04-28T05:41:56;10.67;;;8.00;;
1344;SDS011;15375;48.540;9.268;2023-04-28T05:44:23;8.60;;;7.40;;
1344;SDS011;15375;48.540;9.268;2023-04-28T05:46:48;11.33;;;9.30;;
1344;SDS011;15375;48.540;9.268;2023-04-28T05:49:14;10.37;;;8.23;;
1344;SDS011;15375;48.540;9.268;2023-04-28T05:51:42;9.67;;;8.20;;
1344;SDS011;15375;48.540;9.268;2023-04-28T05:54:08;13.47;;;7.83;;
1344;SDS011;15375;48.540;9.268;2023-04-28T05:56:33;11.33;;;7.43;;
1344;SDS011;15375;48.540;9.268;2023-04-28T05:58:59;9.37;;;7.33;;
1344;SDS011;15375;48.540;9.268;2023-04-28T06:01:28;9.00;;;7.37;;
1344;SDS011;15375;48.540;9.268;2023-04-28T06:03:53;9.27;;;8.33;;
1344;SDS011;15375;48.540;9.268;2023-04-28T06:06:21;7.70;;;6.87;;
1344;SDS011;15375;48.540;9.268;2023-04-28T06:08:47;6.77;;;5.53;;
1344;SDS011;15375;48.540;9.268;2023-04-28T06:11:12;5.77;;;5.27;;
1344;SDS011;15375;48.540;9.268;2023-04-28T06:13:38;6.97;;;5.33;;
1344;SDS011;15375;48.540;9.268;2023-04-28T06:16:03;4.10;;;3.77;;
1344;SDS011;15375;48.540;9.268;2023-04-28T06:18:29;4.47;;;4.10;;
1344;SDS011;15375;48.540;9.268;2023-04-28T06:20:56;7.00;;;4.10;;
1344;SDS011;15375;48.540;9.268;2023-04-28T06:23:22;3.90;;;3.60;;
1344;SDS011;15375;48.540;9.268;2023-04-28T06:25:47;4.70;;;4.20;;
1344;SDS011;15375;48.540;9.268;2023-04-28T06:28:12;4.33;;;3.93;;
1344;SDS011;15375;48.540;9.268;2023-04-28T06:30:38;3.40;;;3.20;;
1344;SDS011;15375;48.540;9.268;2023-04-28T06:33:05;4.30;;;3.93;;
1344;SDS011;15375;48.540;9.268;2023-04-28T06:35:30;5.33;;;3.33;;
1344;SDS011;15375;48.540;9.268;2023-04-28T06:37:56;4.30;;;3.90;;
1344;SDS011;15375;48.540;9.268;2023-04-28T06:40:22;5.17;;;4.17;;
1344;SDS011;15375;48.540;9.268;2023-04-28T06:42:47;5.30;;;3.90;;
1344;SDS011;15375;48.540;9.268;2023-04-28T06:45:13;4.20;;;3.80;;
1344;SDS011;15375;48.540;9.268;2023-04-28T06:47:38;5.40;;;3.93;;
1344;SDS011;15375;48.540;9.268;2023-04-28T06:50:04;4.37;;;3.30;;
1344;SDS011;15375;48.540;9.268;2023-04-28T06:52:30;4.00;;;3.47;;
1344;SDS011;15375;48.540;9.268;2023-04-28T06:54:56;4.00;;;3.60;;
1344;SDS011;15375;48.540;9.268;2023-04-28T06:57:21;4.07;;;3.70;;
1344;SDS011;15375;48.540;9.268;2023-04-28T06:59:47;3.50;;;3.20;;
1344;SDS011;15375;48.540;9.268;2023-04-28T07:02:12;3.60;;;3.30;;
1344;SDS011;15375;48.540;9.268;2023-04-28T07:04:38;5.03;;;3.80;;
1344;SDS011;15375;48.540;9.268;2023-04-28T07:07:03;4.03;;;3.63;;
1344;SDS011;15375;48.540;9.268;2023-04-28T07:09:33;4.40;;;4.00;;
1344;SDS011;15375;48.540;9.268;2023-04-28T07:11:58;5.40;;;4.07;;
1344;SDS011;15375;48.540;9.268;2023-04-28T07:14:24;5.43;;;3.70;;
1344;SDS011;15375;48.540;9.268;2023-04-28T07:16:49;3.70;;;3.20;;
1344;SDS011;15375;48.540;9.268;2023-04-28T07:19:15;3.20;;;2.90;;
1344;SDS011;15375;48.540;9.268;2023-04-28T07:21:40;2.93;;;2.63;;
1344;SDS011;15375;48.540;9.268;2023-04-28T07:24:05;3.63;;;3.33;;
1344;SDS011;15375;48.540;9.268;2023-04-28T07:26:32;3.07;;;2.77;;
1344;SDS011;15375;48.540;9.268;2023-04-28T07:28:57;3.57;;;3.30;;
1344;SDS011;15375;48.540;9.268;2023-04-28T07:31:23;2.70;;;2.40;;
1344;SDS011;15375;48.540;9.268;2023-04-28T07:33:48;2.73;;;2.53;;
1344;SDS011;15375;48.540;9.268;2023-04-28T07:36:13;4.40;;;3.37;;
1344;SDS011;15375;48.540;9.268;2023-04-28T07:38:39;3.40;;;3.00;;
1344;SDS011;15375;48.540;9.268;2023-04-28T07:41:05;3.80;;;2.90;;
1344;SDS011;15375;48.540;9.268;2023-04-28T07:43:30;4.80;;;3.33;;
1344;SDS011;15375;48.540;9.268;2023-04-28T07:45:55;3.27;;;2.97;;
1344;SDS011;15375;48.540;9.268;2023-04-28T07:48:21;3.33;;;3.10;;
1344;SDS011;15375;48.540;9.268;2023-04-28T07:50:47;2.17;;;1.97;;
1344;SDS011;15375;48.540;9.268;2023-04-28T07:53:12;3.10;;;2.90;;
1344;SDS011;15375;48.540;9.268;2023-04-28T07:55:38;3.20;;;2.90;;
1344;SDS011;15375;48.540;9.268;2023-04-28T07:58:06;5.10;;;3.20;;
1344;SDS011;15375;48.540;9.268;2023-04-28T08:00:32;3.40;;;3.10;;
1344;SDS011;15375;48.540;9.268;2023-04-28T08:02:57;3.43;;;3.23;;
1344;SDS011;15375;48.540;9.268;2023-04-28T08:05:22;3.27;;;2.97;;
1344;SDS011;15375;48.540;9.268;2023-04-28T08:07:48;4.67;;;2.90;;
1344;SDS011;15375;48.540;9.268;2023-04-28T08:10:13;5.00;;;2.67;;
1344;SDS011;15375;48.540;9.268;2023-04-28T08:12:38;5.27;;;3.37;;
1344;SDS011;15375;48.540;9.268;2023-04-28T08:15:05;2.77;;;2.57;;
1344;SDS011;15375;48.540;9.268;2023-04-28T08:17:31;6.10;;;2.70;;
1344;SDS011;15375;48.540;9.268;2023-04-28T08:19:56;5.57;;;4.00;;
1344;SDS011;15375;48.540;9.268;2023-04-28T08:22:22;2.67;;;2.47;;
1344;SDS011;15375;48.540;9.268;2023-04-28T08:24:48;2.43;;;2.23;;
1344;SDS011;15375;48.540;9.268;2023-04-28T08:27:13;3.40;;;2.47;;
1344;SDS011;15375;48.540;9.268;2023-04-28T08:29:38;2.97;;;2.30;;
1344;SDS011;15375;48.540;9.268;2023-04-28T08:32:04;2.50;;;2.30;;
1344;SDS011;15375;48.540;9.268;2023-04-28T08:34:30;4.33;;;2.83;;
1344;SDS011;15375;48.540;9.268;2023-04-28T08:36:58;4.47;;;3.20;;
1344;SDS011;15375;48.540;9.268;2023-04-28T08:39:24;5.60;;;2.80;;
1344;SDS011;15375;48.540;9.268;2023-04-28T08:41:51;3.53;;;3.00;;
1344;SDS011;15375;48.540;9.268;2023-04-28T08:44:17;2.63;;;2.43;;
1344;SDS011;15375;48.540;9.268;2023-04-28T08:46:43;2.60;;;2.40;;
1344;SDS011;15375;48.540;9.268;2023-04-28T08:49:12;2.00;;;1.90;;
1344;SDS011;15375;48.540;9.268;2023-04-28T08:51:54;2.47;;;2.27;;
1344;SDS011;15375;48.540;9.268;2023-04-28T08:54:21;2.87;;;2.67;;
1344;SDS011;15375;48.540;9.268;2023-04-28T08:56:49;2.80;;;2.50;;
1344;SDS011;15375;48.540;9.268;2023-04-28T08:59:15;2.67;;;2.47;;
1344;SDS011;15375;48.540;9.268;2023-04-28T09:01:42;3.90;;;2.80;;
1344;SDS011;15375;48.540;9.268;2023-04-28T09:04:07;3.83;;;2.90;;
1344;SDS011;15375;48.540;9.268;2023-04-28T09:06:35;3.30;;;3.00;;
1344;SDS011;15375;48.540;9.268;2023-04-28T09:12:02;6.10;;;4.13;;
1344;SDS011;15375;48.540;9.268;2023-04-28T09:14:35;4.63;;;4.23;;
1344;SDS011;15375;48.540;9.268;2023-04-28T09:17:02;4.70;;;3.90;;
1344;SDS011;15375;48.540;9.268;2023-04-28T09:19:33;4.80;;;4.30;;
1344;SDS011;15375;48.540;9.268;2023-04-28T09:22:03;5.70;;;5.10;;
1344;SDS011;15375;48.540;9.268;2023-04-28T09:24:33;4.83;;;4.43;;
1344;SDS011;15375;48.540;9.268;2023-04-28T09:27:01;5.00;;;4.60;;
1344;SDS011;15375;48.540;9.268;2023-04-28T09:29:28;5.97;;;5.37;;
1344;SDS011;15375;48.540;9.268;2023-04-28T09:31:54;6.40;;;5.80;;
1344;SDS011;15375;48.540;9.268;2023-04-28T09:34:50;5.37;;;4.87;;
1344;SDS011;15375;48.540;9.268;2023-04-28T09:37:17;5.83;;;5.23;;
1344;SDS011;15375;48.540;9.268;2023-04-28T09:39:46;7.20;;;5.10;;
1344;SDS011;15375;48.540;9.268;2023-04-28T09:45:09;6.10;;;5.50;;
1344;SDS011;15375;48.540;9.268;2023-04-28T09:47:37;9.00;;;5.57;;
1344;SDS011;15375;48.540;9.268;2023-04-28T09:50:05;4.43;;;3.90;;
1344;SDS011;15375;48.540;9.268;2023-04-28T09:52:35;8.83;;;4.43;;
1344;SDS011;15375;48.540;9.268;2023-04-28T09:55:06;3.67;;;3.37;;
1344;SDS011;15375;48.540;9.268;2023-04-28T09:57:33;5.50;;;4.87;;
1344;SDS011;15375;48.540;9.268;2023-04-28T10:00:00;7.70;;;3.43;;
1344;SDS011;15375;48.540;9.268;2023-04-28T10:02:29;7.23;;;3.17;;
1344;SDS011;15375;48.540;9.268;2023-04-28T10:04:56;2.83;;;2.27;;
1344;SDS011;15375;48.540;9.268;2023-04-28T10:07:21;1.80;;;1.70;;
1344;SDS011;15375;48.540;9.268;2023-04-28T10:09:47;2.30;;;1.43;;
1344;SDS011;15375;48.540;9.268;2023-04-28T10:12:18;1.57;;;1.07;;
1344;SDS011;15375;48.540;9.268;2023-04-28T10:14:45;1.20;;;1.10;;
1344;SDS011;15375;48.540;9.268;2023-04-28T10:17:14;1.10;;;1.00;;
1344;SDS011;15375;48.540;9.268;2023-04-28T10:19:40;1.70;;;1.60;;
1344;SDS011;15375;48.540;9.268;2023-04-28T10:22:15;1.10;;;1.00;;
1344;SDS011;15375;48.540;9.268;2023-04-28T10:27:59;1.50;;;1.20;;
1344;SDS011;15375;48.540;9.268;2023-04-28T10:30:25;1.43;;;1.10;;
1344;SDS011;15375;48.540;9.268;2023-04-28T10:38:02;1.10;;;1.00;;
1344;SDS011;15375;48.540;9.268;2023-04-28T10:40:30;1.07;;;0.90;;
1344;SDS011;15375;48.540;9.268;2023-04-28T10:42:59;1.20;;;1.10;;
1344;SDS011;15375;48.540;9.268;2023-04-28T10:48:21;2.40;;;1.33;;
1344;SDS011;15375;48.540;9.268;2023-04-28T10:58:55;1.10;;;0.90;;
1344;SDS011;15375;48.540;9.268;2023-04-28T11:01:28;3.90;;;1.27;;
1344;SDS011;15375;48.540;9.268;2023-04-28T11:06:39;1.40;;;0.90;;
1344;SDS011;15375;48.540;9.268;2023-04-28T11:16:54;1.20;;;1.00;;
1344;SDS011;15375;48.540;9.268;2023-04-28T11:19:24;1.03;;;0.93;;
1344;SDS011;15375;48.540;9.268;2023-04-28T11:21:51;1.03;;;1.00;;
1344;SDS011;15375;48.540;9.268;2023-04-28T11:24:18;0.83;;;0.83;;
1344;SDS011;15375;48.540;9.268;2023-04-28T11:26:44;2.43;;;0.73;;
1344;SDS011;15375;48.540;9.268;2023-04-28T11:29:10;1.47;;;0.80;;
1344;SDS011;15375;48.540;9.268;2023-04-28T11:31:36;0.80;;;0.77;;
1344;SDS011;15375;48.540;9.268;2023-04-28T11:34:03;0.87;;;0.70;;
1344;SDS011;15375;48.540;9.268;2023-04-28T11:36:34;0.70;;;0.70;;
1344;SDS011;15375;48.540;9.268;2023-04-28T11:39:01;2.23;;;0.70;;
1344;SDS011;15375;48.540;9.268;2023-04-28T11:41:32;0.80;;;0.80;;
1344;SDS011;15375;48.540;9.268;2023-04-28T11:43:59;0.60;;;0.60;;
1344;SDS011;15375;48.540;9.268;2023-04-28T11:46:25;1.10;;;0.70;;
1344;SDS011;15375;48.540;9.268;2023-04-28T11:49:04;4.53;;;0.93;;
1344;SDS011;15375;48.540;9.268;2023-04-28T11:51:33;0.50;;;0.50;;
1344;SDS011;15375;48.540;9.268;2023-04-28T11:54:01;0.90;;;0.80;;
1344;SDS011;15375;48.540;9.268;2023-04-28T11:56:28;2.07;;;0.67;;
1344;SDS011;15375;48.540;9.268;2023-04-28T11:59:00;1.17;;;0.60;;
1344;SDS011;15375;48.540;9.268;2023-04-28T12:01:26;0.60;;;0.50;;
1344;SDS011;15375;48.540;9.268;2023-04-28T12:03:51;0.70;;;0.70;;
1344;SDS011;15375;48.540;9.268;2023-04-28T12:06:17;0.57;;;0.57;;
1344;SDS011;15375;48.540;9.268;2023-04-28T12:08:45;0.50;;;0.50;;
1344;SDS011;15375;48.540;9.268;2023-04-28T12:11:12;1.13;;;0.60;;
1344;SDS011;15375;48.540;9.268;2023-04-28T12:13:38;0.80;;;0.80;;
1344;SDS011;15375;48.540;9.268;2023-04-28T12:16:04;0.80;;;0.60;;
1344;SDS011;15375;48.540;9.268;2023-04-28T12:18:36;2.57;;;0.70;;
1344;SDS011;15375;48.540;9.268;2023-04-28T12:21:02;0.57;;;0.57;;
1344;SDS011;15375;48.540;9.268;2023-04-28T12:23:34;2.43;;;0.50;;
1344;SDS011;15375;48.540;9.268;2023-04-28T12:26:00;2.07;;;0.60;;
1344;SDS011;15375;48.540;9.268;2023-04-28T12:28:36;0.83;;;0.83;;
1344;SDS011;15375;48.540;9.268;2023-04-28T12:31:06;0.50;;;0.50;;
1344;SDS011;15375;48.540;9.268;2023-04-28T12:33:33;1.17;;;1.07;;
1344;SDS011;15375;48.540;9.268;2023-04-28T12:36:01;1.33;;;0.60;;
1344;SDS011;15375;48.540;9.268;2023-04-28T12:38:28;1.90;;;0.80;;
1344;SDS011;15375;48.540;9.268;2023-04-28T12:40:54;1.13;;;0.97;;
1344;SDS011;15375;48.540;9.268;2023-04-28T12:43:20;1.03;;;0.77;;
1344;SDS011;15375;48.540;9.268;2023-04-28T12:45:48;0.70;;;0.70;;
1344;SDS011;15375;48.540;9.268;2023-04-28T12:48:14;0.70;;;0.70;;
1344;SDS011;15375;48.540;9.268;2023-04-28T12:50:39;1.20;;;0.73;;
1344;SDS011;15375;48.540;9.268;2023-04-28T12:53:04;1.00;;;0.90;;
1344;SDS011;15375;48.540;9.268;2023-04-28T12:55:30;1.93;;;1.00;;
1344;SDS011;15375;48.540;9.268;2023-04-28T12:57:55;0.63;;;0.63;;
1344;SDS011;15375;48.540;9.268;2023-04-28T13:00:21;0.60;;;0.60;;
1344;SDS011;15375;48.540;9.268;2023-04-28T13:02:48;0.80;;;0.80;;
1344;SDS011;15375;48.540;9.268;2023-04-28T13:05:15;0.90;;;0.80;;
1344;SDS011;15375;48.540;9.268;2023-04-28T13:07:40;0.70;;;0.70;;
1344;SDS011;15375;48.540;9.268;2023-04-28T13:10:06;1.07;;;0.83;;
1344;SDS011;15375;48.540;9.268;2023-04-28T13:12:33;1.43;;;0.97;;
1344;SDS011;15375;48.540;9.268;2023-04-28T13:15:01;2.10;;;0.70;;
1344;SDS011;15375;48.540;9.268;2023-04-28T13:17:28;0.90;;;0.77;;
1344;SDS011;15375;48.540;9.268;2023-04-28T13:19:53;0.73;;;0.60;;
1344;SDS011;15375;48.540;9.268;2023-04-28T13:22:21;4.60;;;0.87;;
1344;SDS011;15375;48.540;9.268;2023-04-28T13:24:47;0.60;;;0.60;;
1344;SDS011;15375;48.540;9.268;2023-04-28T13:27:13;0.90;;;0.60;;
1344;SDS011;15375;48.540;9.268;2023-04-28T13:29:38;0.60;;;0.60;;
1344;SDS011;15375;48.540;9.268;2023-04-28T13:32:04;0.50;;;0.50;;
1344;SDS011;15375;48.540;9.268;2023-04-28T13:34:29;2.10;;;0.83;;
1344;SDS011;15375;48.540;9.268;2023-04-28T13:36:55;0.50;;;0.50;;
1344;SDS011;15375;48.540;9.268;2023-04-28T13:39:21;0.67;;;0.60;;
1344;SDS011;15375;48.540;9.268;2023-04-28T13:41:47;0.93;;;0.67;;
1344;SDS011;15375;48.540;9.268;2023-04-28T13:44:15;0.70;;;0.70;;
1344;SDS011;15375;48.540;9.268;2023-04-28T13:46:41;1.87;;;1.10;;
1344;SDS011;15375;48.540;9.268;2023-04-28T13:49:08;0.80;;;0.80;;
1344;SDS011;15375;48.540;9.268;2023-04-28T13:51:34;1.27;;;1.00;;
1344;SDS011;15375;48.540;9.268;2023-04-28T13:53:59;0.73;;;0.73;;
1344;SDS011;15375;48.540;9.268;2023-04-28T13:56:28;1.00;;;0.90;;
1344;SDS011;15375;48.540;9.268;2023-04-28T13:58:55;1.13;;;0.83;;
1344;SDS011;15375;48.540;9.268;2023-04-28T14:01:20;1.13;;;0.80;;
1344;SDS011;15375;48.540;9.268;2023-04-28T14:03:46;1.10;;;1.00;;
1344;SDS011;15375;48.540;9.268;2023-04-28T14:06:11;1.83;;;0.70;;
1344;SDS011;15375;48.540;9.268;2023-04-28T14:08:37;0.70;;;0.70;;
1344;SDS011;15375;48.540;9.268;2023-04-28T14:11:02;2.50;;;1.00;;
1344;SDS011;15375;48.540;9.268;2023-04-28T14:13:27;0.87;;;0.70;;
1344;SDS011;15375;48.540;9.268;2023-04-28T14:15:53;0.90;;;0.73;;
1344;SDS011;15375;48.540;9.268;2023-04-28T14:18:19;1.00;;;1.00;;
1344;SDS011;15375;48.540;9.268;2023-04-28T14:20:44;1.00;;;1.00;;
1344;SDS011;15375;48.540;9.268;2023-04-28T14:23:10;1.10;;;0.80;;
1344;SDS011;15375;48.540;9.268;2023-04-28T14:25:36;1.20;;;1.10;;
1344;SDS011;15375;48.540;9.268;2023-04-28T14:28:01;1.00;;;1.00;;
1344;SDS011;15375;48.540;9.268;2023-04-28T14:30:27;1.27;;;0.93;;
1344;SDS011;15375;48.540;9.268;2023-04-28T14:32:52;1.23;;;1.13;;
1344;SDS011;15375;48.540;9.268;2023-04-28T14:35:17;1.90;;;0.90;;
1344;SDS011;15375;48.540;9.268;2023-04-28T14:37:45;3.87;;;1.20;;
1344;SDS011;15375;48.540;9.268;2023-04-28T14:40:11;1.50;;;1.30;;
1344;SDS011;15375;48.540;9.268;2023-04-28T14:42:37;1.30;;;0.90;;
1344;SDS011;15375;48.540;9.268;2023-04-28T14:45:03;1.43;;;1.23;;
1344;SDS011;15375;48.540;9.268;2023-04-28T14:47:30;3.33;;;1.30;;
1344;SDS011;15375;48.540;9.268;2023-04-28T14:49:56;3.73;;;1.70;;
1344;SDS011;15375;48.540;9.268;2023-04-28T14:52:22;1.40;;;1.30;;
1344;SDS011;15375;48.540;9.268;2023-04-28T14:54:49;1.33;;;1.23;;
1344;SDS011;15375;48.540;9.268;2023-04-28T14:57:15;2.60;;;1.30;;
1344;SDS011;15375;48.540;9.268;2023-04-28T14:59:40;6.40;;;1.70;;
1344;SDS011;15375;48.540;9.268;2023-04-28T15:02:06;1.70;;;1.30;;
1344;SDS011;15375;48.540;9.268;2023-04-28T15:04:32;3.23;;;1.70;;
1344;SDS011;15375;48.540;9.268;2023-04-28T15:06:58;1.50;;;1.40;;
1344;SDS011;15375;48.540;9.268;2023-04-28T15:09:25;2.47;;;1.50;;
1344;SDS011;15375;48.540;9.268;2023-04-28T15:11:51;1.40;;;1.30;;
1344;SDS011;15375;48.540;9.268;2023-04-28T15:14:16;6.40;;;1.30;;
1344;SDS011;15375;48.540;9.268;2023-04-28T15:16:42;1.03;;;1.00;;
1344;SDS011;15375;48.540;9.268;2023-04-28T15:19:09;1.33;;;1.23;;
1344;SDS011;15375;48.540;9.268;2023-04-28T15:21:34;2.60;;;1.30;;
1344;SDS011;15375;48.540;9.268;2023-04-28T15:24:00;1.37;;;1.27;;
1344;SDS011;15375;48.540;9.268;2023-04-28T15:26:25;1.87;;;1.57;;
1344;SDS011;15375;48.540;9.268;2023-04-28T15:28:53;3.63;;;2.03;;
1344;SDS011;15375;48.540;9.268;2023-04-28T15:31:19;1.80;;;1.60;;